sensor_id;sensor_type;location;lat;lon;timestamp;pressure;altitude;pressure_sealevel;temperature
38249;BMP280;24045;51.138;17.126;2023-04-29T00:03:18;99927.45;;;11.92
38249;BMP280;24045;51.138;17.126;2023-04-29T00:18:21;99907.30;;;11.82
38249;BMP280;24045;51.138;17.126;2023-04-29T00:33:24;99896.20;;;11.73
38249;BMP280;24045;51.138;17.126;2023-04-29T00:48:27;99890.61;;;11.58
38249;BMP280;24045;51.138;17.126;2023-04-29T01:03:30;99885.27;;;11.41
38249;BMP280;24045;51.138;17.126;2023-04-29T01:18:40;99874.84;;;11.27
38249;BMP280;24045;51.138;17.126;2023-04-29T01:33:50;99867.84;;;11.11
38249;BMP280;24045;51.138;17.126;2023-04-29T01:48:57;99862.42;;;10.99
38249;BMP280;24045;51.138;17.126;2023-04-29T02:04:00;99867.62;;;10.95
38249;BMP280;24045;51.138;17.126;2023-04-29T02:19:03;99871.25;;;10.89
38249;BMP280;24045;51.138;17.126;2023-04-29T02:34:05;99861.67;;;10.84
38249;BMP280;24045;51.138;17.126;2023-04-29T02:49:08;99852.17;;;10.75
38249;BMP280;24045;51.138;17.126;2023-04-29T03:04:11;99844.89;;;10.72
38249;BMP280;24045;51.138;17.126;2023-04-29T03:19:14;99838.78;;;10.72
38249;BMP280;24045;51.138;17.126;2023-04-29T03:34:16;99821.77;;;10.73
38249;BMP280;24045;51.138;17.126;2023-04-29T03:49:19;99818.71;;;10.71
38249;BMP280;24045;51.138;17.126;2023-04-29T04:04:22;99812.33;;;10.69
38249;BMP280;24045;51.138;17.126;2023-04-29T04:19:25;99804.14;;;10.59
38249;BMP280;24045;51.138;17.126;2023-04-29T04:34:28;99826.22;;;10.63
38249;BMP280;24045;51.138;17.126;2023-04-29T04:49:31;99826.80;;;10.79
38249;BMP280;24045;51.138;17.126;2023-04-29T05:04:34;99821.48;;;10.88
38249;BMP280;24045;51.138;17.126;2023-04-29T05:19:36;99814.52;;;11.81
38249;BMP280;24045;51.138;17.126;2023-04-29T05:34:39;99817.93;;;12.68
38249;BMP280;24045;51.138;17.126;2023-04-29T05:49:42;99820.42;;;13.07
38249;BMP280;24045;51.138;17.126;2023-04-29T06:04:44;99815.16;;;13.99
38249;BMP280;24045;51.138;17.126;2023-04-29T06:19:49;99821.91;;;16.68
38249;BMP280;24045;51.138;17.126;2023-04-29T06:34:52;99821.26;;;19.87
38249;BMP280;24045;51.138;17.126;2023-04-29T06:49:55;99836.48;;;17.99
38249;BMP280;24045;51.138;17.126;2023-04-29T07:04:58;99846.92;;;16.47
38249;BMP280;24045;51.138;17.126;2023-04-29T07:20:01;99839.48;;;15.60
38249;BMP280;24045;51.138;17.126;2023-04-29T07:35:05;99844.08;;;14.93
38249;BMP280;24045;51.138;17.126;2023-04-29T07:50:09;99850.75;;;14.59
38249;BMP280;24045;51.138;17.126;2023-04-29T08:05:11;99853.97;;;14.42
38249;BMP280;24045;51.138;17.126;2023-04-29T08:20:15;99860.95;;;14.22
38249;BMP280;24045;51.138;17.126;2023-04-29T08:35:18;99864.02;;;13.92
38249;BMP280;24045;51.138;17.126;2023-04-29T08:50:21;99875.91;;;13.59
38249;BMP280;24045;51.138;17.126;2023-04-29T09:05:25;99885.75;;;13.55
38249;BMP280;24045;51.138;17.126;2023-04-29T09:20:29;99897.77;;;13.73
38249;BMP280;24045;51.138;17.126;2023-04-29T09:35:32;99910.18;;;14.07
38249;BMP280;24045;51.138;17.126;2023-04-29T09:50:42;99904.78;;;15.53
38249;BMP280;24045;51.138;17.126;2023-04-29T10:05:46;99906.67;;;16.79
38249;BMP280;24045;51.138;17.126;2023-04-29T10:20:49;99907.61;;;17.47
38249;BMP280;24045;51.138;17.126;2023-04-29T10:35:53;99918.61;;;17.71
38249;BMP280;24045;51.138;17.126;2023-04-29T11:06:07;99899.80;;;18.80
38249;BMP280;24045;51.138;17.126;2023-04-29T11:21:11;99882.89;;;19.67
38249;BMP280;24045;51.138;17.126;2023-04-29T11:36:14;99879.08;;;19.82
38249;BMP280;24045;51.138;17.126;2023-04-29T11:51:17;99879.58;;;20.81
38249;BMP280;24045;51.138;17.126;2023-04-29T12:06:28;99877.56;;;21.83
38249;BMP280;24045;51.138;17.126;2023-04-29T12:21:33;99873.98;;;21.16
38249;BMP280;24045;51.138;17.126;2023-04-29T12:36:36;99867.84;;;20.63
38249;BMP280;24045;51.138;17.126;2023-04-29T12:51:39;99862.27;;;20.12
38249;BMP280;24045;51.138;17.126;2023-04-29T13:06:42;99869.89;;;18.65
38249;BMP280;24045;51.138;17.126;2023-04-29T13:21:44;99875.19;;;18.52
38249;BMP280;24045;51.138;17.126;2023-04-29T13:36:48;99857.73;;;19.20
38249;BMP280;24045;51.138;17.126;2023-04-29T13:51:51;99858.69;;;19.73
38249;BMP280;24045;51.138;17.126;2023-04-29T14:06:57;99845.17;;;20.08
38249;BMP280;24045;51.138;17.126;2023-04-29T14:21:59;99844.84;;;19.16
38249;BMP280;24045;51.138;17.126;2023-04-29T14:37:02;99863.59;;;18.54
38249;BMP280;24045;51.138;17.126;2023-04-29T14:52:04;99871.73;;;18.11
38249;BMP280;24045;51.138;17.126;2023-04-29T15:07:08;99875.73;;;18.36
38249;BMP280;24045;51.138;17.126;2023-04-29T15:22:10;99886.57;;;18.28
38249;BMP280;24045;51.138;17.126;2023-04-29T15:37:14;99954.88;;;16.13
38249;BMP280;24045;51.138;17.126;2023-04-29T15:52:17;99962.30;;;13.71
38249;BMP280;24045;51.138;17.126;2023-04-29T16:07:19;99974.16;;;13.25
38249;BMP280;24045;51.138;17.126;2023-04-29T16:22:22;99984.98;;;13.49
38249;BMP280;24045;51.138;17.126;2023-04-29T16:37:25;99987.40;;;13.60
38249;BMP280;24045;51.138;17.126;2023-04-29T16:52:27;99996.17;;;13.83
38249;BMP280;24045;51.138;17.126;2023-04-29T17:07:30;100013.04;;;13.70
38249;BMP280;24045;51.138;17.126;2023-04-29T17:22:33;100014.48;;;13.50
38249;BMP280;24045;51.138;17.126;2023-04-29T17:37:35;100029.11;;;13.21
38249;BMP280;24045;51.138;17.126;2023-04-29T17:52:38;100055.30;;;12.80
38249;BMP280;24045;51.138;17.126;2023-04-29T18:07:41;100085.10;;;12.49
38249;BMP280;24045;51.138;17.126;2023-04-29T18:22:43;100091.19;;;12.27
38249;BMP280;24045;51.138;17.126;2023-04-29T18:37:48;100107.27;;;12.15
38249;BMP280;24045;51.138;17.126;2023-04-29T18:52:51;100138.86;;;12.11
38249;BMP280;24045;51.138;17.126;2023-04-29T19:07:53;100168.77;;;11.99
38249;BMP280;24045;51.138;17.126;2023-04-29T19:22:56;100183.58;;;11.84
38249;BMP280;24045;51.138;17.126;2023-04-29T19:37:59;100200.39;;;11.76
38249;BMP280;24045;51.138;17.126;2023-04-29T19:53:01;100207.20;;;11.72
38249;BMP280;24045;51.138;17.126;2023-04-29T20:08:04;100223.52;;;11.73
38249;BMP280;24045;51.138;17.126;2023-04-29T20:23:08;100230.50;;;11.67
38249;BMP280;24045;51.138;17.126;2023-04-29T20:38:11;100241.43;;;11.61
38249;BMP280;24045;51.138;17.126;2023-04-29T20:53:14;100243.09;;;11.50
38249;BMP280;24045;51.138;17.126;2023-04-29T21:08:43;100260.55;;;11.43
38249;BMP280;24045;51.138;17.126;2023-04-29T21:23:46;100273.95;;;11.38
38249;BMP280;24045;51.138;17.126;2023-04-29T21:38:49;100301.40;;;11.35
38249;BMP280;24045;51.138;17.126;2023-04-29T21:53:54;100315.92;;;11.31
38249;BMP280;24045;51.138;17.126;2023-04-29T22:08:57;100331.02;;;11.16
38249;BMP280;24045;51.138;17.126;2023-04-29T22:23:59;100342.61;;;11.00
38249;BMP280;24045;51.138;17.126;2023-04-29T22:39:02;100355.42;;;10.89
38249;BMP280;24045;51.138;17.126;2023-04-29T22:54:06;100364.63;;;10.79
38249;BMP280;24045;51.138;17.126;2023-04-29T23:09:09;100383.45;;;10.71
38249;BMP280;24045;51.138;17.126;2023-04-29T23:24:11;100396.08;;;10.65
38249;BMP280;24045;51.138;17.126;2023-04-29T23:39:14;100409.73;;;10.58
38249;BMP280;24045;51.138;17.126;2023-04-29T23:54:17;100410.98;;;10.49
